Terminal Aerodrome Forecast
Issued by NWS

Home | Current Version | Previous Version | Text Only | Print | Product List | Glossary On
Versions: 1 2 3 4 5 6 7 8 9 10 11 12 13 14 15 16 17 18 19 20 21 22 23 24
000
FTUS45 KABQ 290500
TAFTCC
TAF
KTCC 290538Z 2906/3006 27015KT P6SM SCT200
     FM291500 32008KT P6SM SKC
     FM292000 04012KT P6SM FEW060
     FM300200 05008KT P6SM BKN025=

USA.gov is the U.S. government's official web portal to all federal, state and local government web resources and services.